createdAt,value
2022-11-30T00:01:50.159Z,36.53
2022-11-30T00:04:19.651Z,35.28
2022-11-30T00:06:49.072Z,34.92
2022-11-30T00:09:18.634Z,35.03
2022-11-30T00:11:48.135Z,34.40
2022-11-30T00:14:17.561Z,35.58
2022-11-30T00:16:48.418Z,35.08
2022-11-30T00:19:17.894Z,32.38
2022-11-30T00:21:47.325Z,34.45
2022-11-30T00:24:16.820Z,34.23
2022-11-30T00:26:48.083Z,33.30
2022-11-30T00:29:17.672Z,34.85
2022-11-30T00:31:47.101Z,38.15
2022-11-30T00:34:16.524Z,42.88
2022-11-30T00:36:46.066Z,34.63
2022-11-30T00:39:15.567Z,36.88
2022-11-30T00:41:45.003Z,35.85
2022-11-30T00:44:14.461Z,35.97
2022-11-30T00:46:43.892Z,32.93
2022-11-30T00:49:13.325Z,35.45
2022-11-30T00:51:42.792Z,34.08
2022-11-30T00:54:12.220Z,35.98
2022-11-30T00:56:41.714Z,33.80
2022-11-30T00:59:11.156Z,36.65
2022-11-30T01:01:40.702Z,35.13
2022-11-30T01:04:10.427Z,35.48
2022-11-30T01:06:40.052Z,34.88
2022-11-30T01:09:09.611Z,33.40
2022-11-30T01:11:39.782Z,34.17
2022-11-30T01:14:09.258Z,38.17
2022-11-30T01:16:38.767Z,36.38
2022-11-30T01:19:08.234Z,35.83
2022-11-30T01:21:37.799Z,33.73
2022-11-30T01:24:08.398Z,34.55
2022-11-30T01:26:37.895Z,33.63
2022-11-30T01:29:07.390Z,35.65
2022-11-30T01:31:36.987Z,34.40
2022-11-30T01:34:06.505Z,35.63
2022-11-30T01:36:37.571Z,37.40
2022-11-30T01:39:10.342Z,35.30
2022-11-30T01:41:39.763Z,35.20
2022-11-30T01:44:20.094Z,34.73
2022-11-30T01:47:01.613Z,33.18
2022-11-30T01:49:36.850Z,41.60
2022-11-30T01:52:12.083Z,32.88
2022-11-30T01:54:47.794Z,32.17
2022-11-30T01:57:23.532Z,36.60
2022-11-30T01:59:56.114Z,34.83
2022-11-30T02:02:49.787Z,35.05
2022-11-30T02:05:21.220Z,40.70
2022-11-30T02:07:50.829Z,34.63
2022-11-30T02:10:29.851Z,33.70
2022-11-30T02:13:35.653Z,39.58
2022-11-30T02:16:20.208Z,37.50
2022-11-30T02:19:01.549Z,35.80
2022-11-30T02:21:43.124Z,37.05
2022-11-30T02:24:36.927Z,34.88
2022-11-30T02:27:20.340Z,44.83
2022-11-30T02:30:11.303Z,40.85
2022-11-30T02:33:00.406Z,34.08
2022-11-30T02:35:35.501Z,33.15
2022-11-30T02:38:05.920Z,32.28
2022-11-30T02:40:35.336Z,31.02
2022-11-30T02:43:08.040Z,30.92
2022-11-30T02:45:49.521Z,33.13
2022-11-30T02:48:22.053Z,30.40
2022-11-30T02:50:54.546Z,29.23
2022-11-30T02:53:24.355Z,29.40
2022-11-30T02:55:55.492Z,28.20
2022-11-30T02:58:25.017Z,25.97
2022-11-30T03:00:54.431Z,24.10
2022-11-30T03:03:24.016Z,25.35
2022-11-30T03:05:53.501Z,26.10
2022-11-30T03:08:22.937Z,25.68
2022-11-30T03:10:52.390Z,23.50
2022-11-30T03:13:21.864Z,22.37
2022-11-30T03:15:51.411Z,22.70
2022-11-30T03:18:20.907Z,23.07
2022-11-30T03:20:50.447Z,24.45
2022-11-30T03:23:19.883Z,22.90
2022-11-30T03:25:49.301Z,20.40
2022-11-30T03:28:18.804Z,22.32
2022-11-30T03:30:51.675Z,23.52
2022-11-30T03:33:21.367Z,21.17
2022-11-30T03:35:52.390Z,22.45
2022-11-30T03:38:21.908Z,22.85
2022-11-30T03:40:51.334Z,21.50
2022-11-30T03:43:20.773Z,22.00
2022-11-30T03:45:50.253Z,22.10
2022-11-30T03:48:20.659Z,22.32
2022-11-30T03:50:50.669Z,20.37
2022-11-30T03:53:21.708Z,20.52
2022-11-30T03:55:57.152Z,21.35
2022-11-30T03:58:27.634Z,21.57
2022-11-30T04:01:12.105Z,20.93
2022-11-30T04:03:42.337Z,21.45
2022-11-30T04:06:13.447Z,20.88
2022-11-30T04:08:43.381Z,21.25
2022-11-30T04:11:13.316Z,20.48
2022-11-30T04:13:43.608Z,21.25
2022-11-30T04:16:13.274Z,20.62
2022-11-30T04:18:42.665Z,19.65
2022-11-30T04:21:12.578Z,19.73
2022-11-30T04:23:42.600Z,20.48
2022-11-30T04:26:16.783Z,20.23
2022-11-30T04:28:46.396Z,18.40
2022-11-30T04:31:15.854Z,18.92
2022-11-30T04:33:45.426Z,20.37
2022-11-30T04:36:17.976Z,20.17
2022-11-30T04:38:47.913Z,19.57
2022-11-30T04:41:17.411Z,19.52
2022-11-30T04:43:46.962Z,19.85
2022-11-30T04:46:16.693Z,20.07
2022-11-30T04:48:46.228Z,20.70
2022-11-30T04:51:15.746Z,18.73
2022-11-30T04:53:45.182Z,20.72
2022-11-30T04:56:14.629Z,23.57
2022-11-30T04:58:44.128Z,23.55
2022-11-30T05:01:13.555Z,25.13
2022-11-30T05:03:43.062Z,22.65
2022-11-30T05:06:12.524Z,23.62
2022-11-30T05:08:41.951Z,20.15
2022-11-30T05:11:11.387Z,14.98
2022-11-30T05:13:40.935Z,15.75
2022-11-30T05:16:12.199Z,16.13
2022-11-30T05:18:41.714Z,16.00
2022-11-30T05:21:12.057Z,13.43
2022-11-30T05:23:41.483Z,13.48
2022-11-30T05:26:10.916Z,13.00
2022-11-30T05:28:40.389Z,13.48
2022-11-30T05:31:09.951Z,14.40
2022-11-30T05:33:39.527Z,14.95
2022-11-30T05:36:10.799Z,15.20
2022-11-30T05:38:40.732Z,18.35
2022-11-30T05:41:10.295Z,17.37
2022-11-30T05:43:39.958Z,17.30
2022-11-30T05:46:11.099Z,17.40
2022-11-30T05:48:40.518Z,17.90
2022-11-30T05:51:13.155Z,17.27
2022-11-30T05:53:43.421Z,19.75
2022-11-30T05:56:15.814Z,19.50
2022-11-30T05:58:45.507Z,22.05
2022-11-30T06:01:23.845Z,23.60
2022-11-30T06:03:53.712Z,34.55
2022-11-30T06:06:23.581Z,33.15
2022-11-30T06:08:53.032Z,27.65
2022-11-30T06:11:22.462Z,24.95
2022-11-30T06:13:51.973Z,24.93
2022-11-30T06:16:21.458Z,23.67
2022-11-30T06:18:51.005Z,23.62
2022-11-30T06:21:24.332Z,24.87
2022-11-30T06:23:51.611Z,22.42
2022-11-30T06:26:25.638Z,20.90
2022-11-30T06:28:56.847Z,19.52
2022-11-30T06:31:26.360Z,19.43
2022-11-30T06:33:59.896Z,18.30
2022-11-30T06:36:35.499Z,17.80
2022-11-30T06:39:00.524Z,16.37
2022-11-30T06:41:30.009Z,15.03
2022-11-30T06:43:59.467Z,16.05
2022-11-30T06:46:29.033Z,16.00
2022-11-30T06:48:58.537Z,16.62
2022-11-30T06:51:27.966Z,16.55
2022-11-30T06:53:57.431Z,15.28
2022-11-30T06:56:26.845Z,15.93
2022-11-30T06:58:56.360Z,18.00
2022-11-30T07:01:26.005Z,17.00
2022-11-30T07:03:55.511Z,16.77
2022-11-30T07:06:24.901Z,15.93
2022-11-30T07:08:54.420Z,16.12
2022-11-30T07:11:23.854Z,16.00
2022-11-30T07:13:53.368Z,16.10
2022-11-30T07:16:22.894Z,15.47
2022-11-30T07:18:52.574Z,15.43
2022-11-30T07:21:22.001Z,18.17
2022-11-30T07:24:09.164Z,16.95
2022-11-30T07:26:38.582Z,16.97
2022-11-30T07:29:08.020Z,17.17
2022-11-30T07:34:09.152Z,18.73
2022-11-30T07:36:38.682Z,17.25
2022-11-30T07:39:08.378Z,17.67
2022-11-30T07:41:37.888Z,23.70
2022-11-30T07:44:09.083Z,20.48
2022-11-30T07:46:39.513Z,19.65
2022-11-30T07:49:12.688Z,18.50
2022-11-30T07:51:42.207Z,17.12
2022-11-30T07:54:11.771Z,18.52
2022-11-30T07:56:41.271Z,17.77
2022-11-30T07:59:11.495Z,17.55
2022-11-30T08:01:41.097Z,15.70
2022-11-30T08:04:12.440Z,16.90
2022-11-30T08:06:42.130Z,15.93
2022-11-30T08:09:17.869Z,15.20
2022-11-30T08:14:13.839Z,14.90
2022-11-30T08:16:44.324Z,15.40
2022-11-30T08:19:13.915Z,16.02
2022-11-30T08:21:43.342Z,14.30
2022-11-30T08:24:15.135Z,15.08
2022-11-30T08:26:45.117Z,14.58
2022-11-30T08:29:14.533Z,15.43
2022-11-30T08:31:44.000Z,14.50
2022-11-30T08:34:14.647Z,14.38
2022-11-30T08:39:15.301Z,14.78
2022-11-30T08:41:44.788Z,15.53
2022-11-30T08:44:14.303Z,14.13
2022-11-30T08:46:51.510Z,14.13
2022-11-30T08:49:23.843Z,14.18
2022-11-30T08:52:17.454Z,14.43
2022-11-30T08:54:17.379Z,17.07
2022-11-30T08:56:46.800Z,15.38
2022-11-30T08:59:16.239Z,14.35
2022-11-30T09:01:45.687Z,15.53
2022-11-30T09:04:15.150Z,15.75
2022-11-30T09:06:44.558Z,16.17
2022-11-30T09:09:14.049Z,15.45
2022-11-30T09:11:43.547Z,20.02
2022-11-30T09:14:13.054Z,19.60
2022-11-30T09:16:42.871Z,20.75
2022-11-30T09:19:12.700Z,20.42
2022-11-30T09:21:45.452Z,19.37
2022-11-30T09:24:13.336Z,18.52
2022-11-30T09:26:42.754Z,20.23
2022-11-30T09:29:12.207Z,16.95
2022-11-30T09:31:41.670Z,17.17
2022-11-30T09:34:12.516Z,17.65
2022-11-30T09:36:42.176Z,16.50
2022-11-30T09:39:13.126Z,17.20
2022-11-30T09:42:19.215Z,17.62
2022-11-30T09:44:54.741Z,17.35
2022-11-30T09:47:32.260Z,18.60
2022-11-30T09:50:07.256Z,18.10
2022-11-30T09:52:39.750Z,17.95
2022-11-30T09:55:10.847Z,17.23
2022-11-30T09:57:52.599Z,16.80
2022-11-30T10:00:24.628Z,17.30
2022-11-30T10:02:56.611Z,16.00
2022-11-30T10:05:48.038Z,17.27
2022-11-30T10:08:26.345Z,16.23
2022-11-30T10:11:33.720Z,17.02
2022-11-30T10:14:28.488Z,17.30
2022-11-30T10:17:03.792Z,19.30
2022-11-30T10:19:56.888Z,21.50
2022-11-30T10:22:53.561Z,19.48
2022-11-30T10:25:42.827Z,18.67
2022-11-30T10:28:46.454Z,17.86
2022-11-30T10:30:53.251Z,18.60
2022-11-30T10:33:26.046Z,19.30
2022-11-30T10:35:58.689Z,18.75
2022-11-30T10:38:49.537Z,18.00
2022-11-30T10:41:31.143Z,18.02
2022-11-30T10:44:03.826Z,18.50
2022-11-30T10:46:36.721Z,18.70
2022-11-30T10:49:12.758Z,18.92
2022-11-30T10:51:46.050Z,16.95
2022-11-30T10:54:19.158Z,18.87
2022-11-30T10:56:49.003Z,18.48
2022-11-30T10:59:24.469Z,18.90
2022-11-30T11:01:54.668Z,19.12
2022-11-30T11:04:27.622Z,19.52
2022-11-30T11:09:47.181Z,17.97
2022-11-30T11:12:30.792Z,16.55
2022-11-30T11:17:47.809Z,17.73
2022-11-30T11:20:32.366Z,16.70
2022-11-30T11:23:03.748Z,18.12
2022-11-30T11:25:40.149Z,16.70
2022-11-30T11:28:19.016Z,18.37
2022-11-30T11:30:49.088Z,17.65
2022-11-30T11:33:24.652Z,16.52
2022-11-30T11:36:09.292Z,16.65
2022-11-30T11:38:48.464Z,16.62
2022-11-30T11:41:35.306Z,15.55
2022-11-30T11:44:13.891Z,15.55
2022-11-30T11:46:58.331Z,15.13
2022-11-30T11:49:30.267Z,13.80
2022-11-30T11:52:08.039Z,15.53
2022-11-30T11:54:43.435Z,15.15
2022-11-30T11:57:15.921Z,15.25
2022-11-30T11:59:48.744Z,14.95
2022-11-30T12:02:24.523Z,15.65
2022-11-30T12:05:06.687Z,14.60
2022-11-30T12:07:41.913Z,13.97
2022-11-30T12:10:52.473Z,15.18
2022-11-30T12:13:16.540Z,17.17
2022-11-30T12:16:01.350Z,14.93
2022-11-30T12:18:36.829Z,14.87
2022-11-30T12:21:09.364Z,15.95
2022-11-30T12:23:56.909Z,17.67
2022-11-30T12:26:32.185Z,16.40
2022-11-30T12:29:24.314Z,16.60
2022-11-30T12:32:22.738Z,15.53
2022-11-30T12:35:31.936Z,16.60
2022-11-30T12:38:16.177Z,16.37
2022-11-30T12:41:08.596Z,17.32
2022-11-30T12:44:11.506Z,15.50
2022-11-30T12:47:00.348Z,15.87
2022-11-30T12:49:48.157Z,15.72
2022-11-30T12:52:26.728Z,15.25
2022-11-30T12:55:28.528Z,17.45
2022-11-30T12:58:34.731Z,15.20
2022-11-30T13:01:12.930Z,14.73
2022-11-30T13:04:00.258Z,14.75
2022-11-30T13:06:32.790Z,13.80
2022-11-30T13:09:24.102Z,13.08
2022-11-30T13:11:56.775Z,14.35
2022-11-30T13:14:28.752Z,14.35
2022-11-30T13:17:04.041Z,12.87
2022-11-30T13:19:56.224Z,14.13
2022-11-30T13:22:53.123Z,14.24
2022-11-30T13:28:18.162Z,13.48
2022-11-30T13:30:56.829Z,12.95
2022-11-30T13:33:41.704Z,13.30
2022-11-30T13:36:29.363Z,13.88
2022-11-30T13:39:10.996Z,14.45
2022-11-30T13:41:43.637Z,12.65
2022-11-30T13:44:28.371Z,14.25
2022-11-30T13:46:59.150Z,13.93
2022-11-30T13:49:36.953Z,13.53
2022-11-30T13:52:22.461Z,13.55
2022-11-30T13:54:51.029Z,13.77
2022-11-30T13:57:29.698Z,14.27
2022-11-30T14:00:00.882Z,13.50
2022-11-30T14:02:37.770Z,12.75
2022-11-30T14:05:22.747Z,12.10
2022-11-30T14:07:55.349Z,12.45
2022-11-30T14:10:46.385Z,12.25
2022-11-30T14:13:22.884Z,12.88
2022-11-30T14:15:55.302Z,12.37
2022-11-30T14:21:17.680Z,12.68
2022-11-30T14:24:02.007Z,12.40
2022-11-30T14:26:43.511Z,11.88
2022-11-30T14:29:22.330Z,12.00
2022-11-30T14:32:14.895Z,12.13
2022-11-30T14:34:53.579Z,11.53
2022-11-30T14:37:33.239Z,12.60
2022-11-30T14:40:08.449Z,12.10
2022-11-30T14:42:38.869Z,12.18
2022-11-30T14:45:11.747Z,12.43
2022-11-30T14:47:46.654Z,12.58
2022-11-30T14:50:15.653Z,12.30
2022-11-30T14:53:06.074Z,14.25
2022-11-30T14:55:50.872Z,15.73
2022-11-30T14:58:42.696Z,14.00
2022-11-30T15:01:30.744Z,14.85
2022-11-30T15:04:09.851Z,13.08
2022-11-30T15:06:41.532Z,14.35
2022-11-30T15:09:19.871Z,12.33
2022-11-30T15:11:51.688Z,13.43
2022-11-30T15:14:21.540Z,12.90
2022-11-30T15:16:53.845Z,12.40
2022-11-30T15:19:32.881Z,12.20
2022-11-30T15:22:02.575Z,13.08
2022-11-30T15:24:32.284Z,11.60
2022-11-30T15:27:11.505Z,12.95
2022-11-30T15:29:47.374Z,12.35
2022-11-30T15:32:20.463Z,12.18
2022-11-30T15:34:57.496Z,12.88
2022-11-30T15:37:32.816Z,12.78
2022-11-30T15:40:05.191Z,13.60
2022-11-30T15:42:44.498Z,12.37
2022-11-30T15:45:20.133Z,13.62
2022-11-30T15:47:50.802Z,23.42
2022-11-30T15:50:32.482Z,12.40
2022-11-30T15:53:05.347Z,11.88
2022-11-30T15:55:46.884Z,12.23
2022-11-30T15:58:35.033Z,12.43
2022-11-30T16:01:08.979Z,12.60
2022-11-30T16:04:03.035Z,11.73
2022-11-30T16:06:47.816Z,11.48
2022-11-30T16:09:23.195Z,12.58
2022-11-30T16:11:57.302Z,12.85
2022-11-30T16:14:27.845Z,12.47
2022-11-30T16:16:58.109Z,11.78
2022-11-30T16:19:28.144Z,13.55
2022-11-30T16:21:57.755Z,13.18
2022-11-30T16:24:27.341Z,14.85
2022-11-30T16:26:57.074Z,12.55
2022-11-30T16:29:26.893Z,51.37
2022-11-30T16:31:56.604Z,21.57
2022-11-30T16:34:26.175Z,13.43
2022-11-30T16:36:55.805Z,14.10
2022-11-30T16:39:25.388Z,15.38
2022-11-30T16:41:55.016Z,26.27
2022-11-30T16:44:24.668Z,25.23
2022-11-30T16:46:54.166Z,13.22
2022-11-30T16:49:24.047Z,18.62
2022-11-30T16:51:53.725Z,24.37
2022-11-30T16:54:23.156Z,23.42
2022-11-30T16:56:52.643Z,15.32
2022-11-30T16:59:22.080Z,14.90
2022-11-30T17:01:53.311Z,14.95
2022-11-30T17:04:26.425Z,14.53
2022-11-30T17:07:02.219Z,27.17
2022-11-30T17:09:30.078Z,19.07
2022-11-30T17:11:59.607Z,18.33
2022-11-30T17:14:29.478Z,20.05
2022-11-30T17:17:00.822Z,24.95
2022-11-30T17:19:30.487Z,28.40
2022-11-30T17:22:00.114Z,17.82
2022-11-30T17:24:29.618Z,15.80
2022-11-30T17:27:00.217Z,16.93
2022-11-30T17:29:29.641Z,21.85
2022-11-30T17:31:59.553Z,17.07
2022-11-30T17:34:29.410Z,18.00
2022-11-30T17:36:59.380Z,17.45
2022-11-30T17:39:28.810Z,18.98
2022-11-30T17:41:58.803Z,20.27
2022-11-30T17:44:28.418Z,20.12
2022-11-30T17:46:58.117Z,23.63
2022-11-30T17:49:27.597Z,28.45
2022-11-30T17:51:57.189Z,23.47
2022-11-30T17:54:26.938Z,22.40
2022-11-30T17:56:56.366Z,21.35
2022-11-30T17:59:25.931Z,23.87
2022-11-30T18:01:55.594Z,22.03
2022-11-30T18:04:25.218Z,23.50
2022-11-30T18:06:54.715Z,24.27
2022-11-30T18:09:28.086Z,33.42
2022-11-30T18:11:57.549Z,26.82
2022-11-30T18:14:27.121Z,24.02
2022-11-30T18:16:56.672Z,25.70
2022-11-30T18:19:26.353Z,23.10
2022-11-30T18:21:55.796Z,23.95
2022-11-30T18:24:26.449Z,24.23
2022-11-30T18:26:55.885Z,23.75
2022-11-30T18:29:26.807Z,26.02
2022-11-30T18:34:24.993Z,29.63
2022-11-30T18:36:54.514Z,26.95
2022-11-30T18:39:24.252Z,26.10
2022-11-30T18:41:54.149Z,28.62
2022-11-30T18:44:23.793Z,34.00
2022-11-30T18:46:53.495Z,29.40
2022-11-30T18:49:24.076Z,31.80
2022-11-30T18:51:53.705Z,37.05
2022-11-30T18:54:24.119Z,30.62
2022-11-30T18:56:53.820Z,38.78
2022-11-30T18:59:23.538Z,40.98
2022-11-30T19:01:53.599Z,37.85
2022-11-30T19:04:26.235Z,33.50
2022-11-30T19:06:55.959Z,55.30
2022-11-30T19:09:25.681Z,37.73
2022-11-30T19:11:55.889Z,38.00
2022-11-30T19:14:25.404Z,37.38
2022-11-30T19:16:55.068Z,35.57
2022-11-30T19:19:24.685Z,36.42
2022-11-30T19:21:54.525Z,36.60
2022-11-30T19:24:24.750Z,51.10
2022-11-30T19:26:54.195Z,40.58
2022-11-30T19:29:23.757Z,41.75
2022-11-30T19:31:53.708Z,43.60
2022-11-30T19:34:23.130Z,40.15
2022-11-30T19:36:52.562Z,37.73
2022-11-30T19:39:22.048Z,37.60
2022-11-30T19:44:20.567Z,39.30
2022-11-30T19:46:50.375Z,38.87
2022-11-30T19:49:19.887Z,42.90
2022-11-30T19:51:49.591Z,35.00
2022-11-30T19:54:19.776Z,38.20
2022-11-30T19:56:49.442Z,37.25
2022-11-30T19:59:19.042Z,43.33
2022-11-30T20:01:48.647Z,39.77
2022-11-30T20:04:18.118Z,45.73
2022-11-30T20:06:47.836Z,37.75
2022-11-30T20:09:17.271Z,35.48
2022-11-30T20:11:46.837Z,40.20
2022-11-30T20:14:17.816Z,33.75
2022-11-30T20:16:47.306Z,32.60
2022-11-30T20:19:17.523Z,34.18
2022-11-30T20:21:48.567Z,32.25
2022-11-30T20:24:18.102Z,37.42
2022-11-30T20:26:47.525Z,35.98
2022-11-30T20:29:18.977Z,38.08
2022-11-30T20:31:50.627Z,35.83
2022-11-30T20:34:20.132Z,34.00
2022-11-30T20:36:49.914Z,33.88
2022-11-30T20:39:19.478Z,37.17
2022-11-30T20:41:48.943Z,36.05
2022-11-30T20:44:19.259Z,36.93
2022-11-30T20:46:48.678Z,34.65
2022-11-30T20:49:21.600Z,33.67
2022-11-30T20:51:51.462Z,35.73
2022-11-30T20:54:21.842Z,34.50
2022-11-30T20:56:51.632Z,35.78
2022-11-30T21:01:51.739Z,37.00
2022-11-30T21:04:23.175Z,45.48
2022-11-30T21:06:53.536Z,55.12
2022-11-30T21:09:23.049Z,44.30
2022-11-30T21:11:52.547Z,53.25
2022-11-30T21:14:22.340Z,50.25
2022-11-30T21:16:51.799Z,38.60
2022-11-30T21:19:21.653Z,47.93
2022-11-30T21:21:51.096Z,40.80
2022-11-30T21:24:20.519Z,45.23
2022-11-30T21:26:50.370Z,45.88
2022-11-30T21:29:20.176Z,46.80
2022-11-30T21:31:49.704Z,41.17
2022-11-30T21:34:19.219Z,40.15
2022-11-30T21:36:49.155Z,45.43
2022-11-30T21:39:18.762Z,43.90
2022-11-30T21:44:18.095Z,39.50
2022-11-30T21:46:48.085Z,52.55
2022-11-30T21:49:17.726Z,43.48
2022-11-30T21:54:16.459Z,38.00
2022-11-30T21:56:46.485Z,39.58
2022-11-30T21:59:15.998Z,49.90
2022-11-30T22:01:46.618Z,42.20
2022-11-30T22:06:45.508Z,47.48
2022-11-30T22:09:17.763Z,55.98
2022-11-30T22:11:48.223Z,50.67
2022-11-30T22:14:18.562Z,54.87
2022-11-30T22:16:47.986Z,46.75
2022-11-30T22:19:18.398Z,40.83
2022-11-30T22:21:50.378Z,39.83
2022-11-30T22:24:20.166Z,37.87
2022-11-30T22:26:49.676Z,41.83
2022-11-30T22:29:24.650Z,39.25
2022-11-30T22:31:55.303Z,42.17
2022-11-30T22:34:24.784Z,42.73
2022-11-30T22:36:54.232Z,38.65
2022-11-30T22:39:23.732Z,40.48
2022-11-30T22:41:55.964Z,40.12
2022-11-30T22:44:26.551Z,41.50
2022-11-30T22:46:56.218Z,40.97
2022-11-30T22:49:25.936Z,40.17
2022-11-30T22:51:55.492Z,40.75
2022-11-30T22:54:25.120Z,42.93
2022-11-30T22:56:54.564Z,40.25
2022-11-30T22:59:24.065Z,41.80
2022-11-30T23:01:53.672Z,39.73
2022-11-30T23:04:23.698Z,38.60
2022-11-30T23:06:53.399Z,39.18
2022-11-30T23:09:24.465Z,40.23
2022-11-30T23:11:54.007Z,37.17
2022-11-30T23:14:23.501Z,36.53
2022-11-30T23:16:52.940Z,35.00
2022-11-30T23:19:22.396Z,37.28
2022-11-30T23:21:51.899Z,36.50
2022-11-30T23:24:22.202Z,36.53
2022-11-30T23:26:51.623Z,36.38
2022-11-30T23:29:21.057Z,34.67
2022-11-30T23:31:50.851Z,38.88
2022-11-30T23:34:22.981Z,36.77
2022-11-30T23:36:52.785Z,35.77
2022-11-30T23:39:22.826Z,37.23
2022-11-30T23:41:52.284Z,36.28
2022-11-30T23:44:22.699Z,37.17
2022-11-30T23:46:52.388Z,34.80
2022-11-30T23:49:21.854Z,37.75
2022-11-30T23:51:51.354Z,38.35
2022-11-30T23:54:20.933Z,36.50
2022-11-30T23:56:50.424Z,35.83
2022-11-30T23:59:19.927Z,35.78
